sensor_id;sensor_type;location;lat;lon;timestamp;temperature;humidity
55785;DHT22;41709;52.536;5.688;2023-03-01T00:01:31;1.60;79.80
55785;DHT22;41709;52.536;5.688;2023-03-01T00:03:58;1.60;79.40
55785;DHT22;41709;52.536;5.688;2023-03-01T00:06:25;1.50;79.40
55785;DHT22;41709;52.536;5.688;2023-03-01T00:08:51;1.50;79.30
55785;DHT22;41709;52.536;5.688;2023-03-01T00:11:24;1.40;79.20
55785;DHT22;41709;52.536;5.688;2023-03-01T00:13:52;1.40;79.20
55785;DHT22;41709;52.536;5.688;2023-03-01T00:18:48;1.30;79.30
55785;DHT22;41709;52.536;5.688;2023-03-01T00:21:14;1.30;79.60
55785;DHT22;41709;52.536;5.688;2023-03-01T00:23:39;1.30;80.20
55785;DHT22;41709;52.536;5.688;2023-03-01T00:26:07;1.30;80.60
55785;DHT22;41709;52.536;5.688;2023-03-01T00:28:33;1.20;80.90
55785;DHT22;41709;52.536;5.688;2023-03-01T00:31:06;1.20;81.00
55785;DHT22;41709;52.536;5.688;2023-03-01T00:33:32;1.20;80.90
55785;DHT22;41709;52.536;5.688;2023-03-01T00:35:59;1.20;80.70
55785;DHT22;41709;52.536;5.688;2023-03-01T00:38:25;1.10;80.70
55785;DHT22;41709;52.536;5.688;2023-03-01T00:40:50;1.10;80.40
55785;DHT22;41709;52.536;5.688;2023-03-01T00:43:16;1.10;80.40
55785;DHT22;41709;52.536;5.688;2023-03-01T00:45:41;1.10;80.30
55785;DHT22;41709;52.536;5.688;2023-03-01T00:48:07;1.00;80.10
55785;DHT22;41709;52.536;5.688;2023-03-01T00:50:32;1.00;80.10
55785;DHT22;41709;52.536;5.688;2023-03-01T00:52:58;1.00;80.00
55785;DHT22;41709;52.536;5.688;2023-03-01T00:55:24;1.00;80.20
55785;DHT22;41709;52.536;5.688;2023-03-01T00:57:49;1.00;80.60
55785;DHT22;41709;52.536;5.688;2023-03-01T01:00:16;0.90;80.90
55785;DHT22;41709;52.536;5.688;2023-03-01T01:02:42;0.90;81.00
55785;DHT22;41709;52.536;5.688;2023-03-01T01:05:07;0.90;80.90
55785;DHT22;41709;52.536;5.688;2023-03-01T01:07:33;0.90;80.80
55785;DHT22;41709;52.536;5.688;2023-03-01T01:09:59;0.80;80.70
55785;DHT22;41709;52.536;5.688;2023-03-01T01:12:24;0.80;80.70
55785;DHT22;41709;52.536;5.688;2023-03-01T01:14:50;0.80;80.50
55785;DHT22;41709;52.536;5.688;2023-03-01T01:17:15;0.80;80.50
55785;DHT22;41709;52.536;5.688;2023-03-01T01:19:41;0.70;81.00
55785;DHT22;41709;52.536;5.688;2023-03-01T01:22:07;0.70;80.90
55785;DHT22;41709;52.536;5.688;2023-03-01T01:24:32;0.70;80.90
55785;DHT22;41709;52.536;5.688;2023-03-01T01:26:58;0.70;80.90
55785;DHT22;41709;52.536;5.688;2023-03-01T01:29:23;0.70;80.70
55785;DHT22;41709;52.536;5.688;2023-03-01T01:31:49;0.70;80.70
55785;DHT22;41709;52.536;5.688;2023-03-01T01:34:17;0.60;80.80
55785;DHT22;41709;52.536;5.688;2023-03-01T01:36:43;0.60;80.80
55785;DHT22;41709;52.536;5.688;2023-03-01T01:39:09;0.60;80.70
55785;DHT22;41709;52.536;5.688;2023-03-01T01:41:39;0.60;80.60
55785;DHT22;41709;52.536;5.688;2023-03-01T01:44:33;0.60;81.00
55785;DHT22;41709;52.536;5.688;2023-03-01T01:47:01;0.50;80.60
55785;DHT22;41709;52.536;5.688;2023-03-01T01:54:47;0.40;81.20
55785;DHT22;41709;52.536;5.688;2023-03-01T01:57:29;0.40;81.30
55785;DHT22;41709;52.536;5.688;2023-03-01T01:59:58;0.40;81.20
55785;DHT22;41709;52.536;5.688;2023-03-01T02:02:25;0.30;81.30
55785;DHT22;41709;52.536;5.688;2023-03-01T02:04:58;0.30;81.60
55785;DHT22;41709;52.536;5.688;2023-03-01T02:07:28;0.30;82.00
55785;DHT22;41709;52.536;5.688;2023-03-01T02:09:55;0.30;82.40
55785;DHT22;41709;52.536;5.688;2023-03-01T02:12:23;0.30;82.80
55785;DHT22;41709;52.536;5.688;2023-03-01T02:14:49;0.30;82.90
55785;DHT22;41709;52.536;5.688;2023-03-01T02:17:17;0.30;82.90
55785;DHT22;41709;52.536;5.688;2023-03-01T02:19:59;0.30;82.90
55785;DHT22;41709;52.536;5.688;2023-03-01T02:22:31;0.30;82.80
55785;DHT22;41709;52.536;5.688;2023-03-01T02:30:20;0.20;82.90
55785;DHT22;41709;52.536;5.688;2023-03-01T02:32:47;0.20;83.20
55785;DHT22;41709;52.536;5.688;2023-03-01T02:35:15;0.20;83.40
55785;DHT22;41709;52.536;5.688;2023-03-01T02:37:42;0.20;83.70
55785;DHT22;41709;52.536;5.688;2023-03-01T02:40:12;0.30;84.20
55785;DHT22;41709;52.536;5.688;2023-03-01T02:42:58;0.20;85.10
55785;DHT22;41709;52.536;5.688;2023-03-01T02:45:24;0.20;86.00
55785;DHT22;41709;52.536;5.688;2023-03-01T02:47:53;0.30;86.40
55785;DHT22;41709;52.536;5.688;2023-03-01T02:53:04;0.30;87.10
55785;DHT22;41709;52.536;5.688;2023-03-01T02:55:34;0.40;87.30
55785;DHT22;41709;52.536;5.688;2023-03-01T02:58:02;0.40;87.30
55785;DHT22;41709;52.536;5.688;2023-03-01T03:00:38;0.40;87.20
55785;DHT22;41709;52.536;5.688;2023-03-01T03:03:06;0.40;86.90
55785;DHT22;41709;52.536;5.688;2023-03-01T03:05:32;0.40;86.70
55785;DHT22;41709;52.536;5.688;2023-03-01T03:07:59;0.50;86.50
55785;DHT22;41709;52.536;5.688;2023-03-01T03:10:32;0.40;86.20
55785;DHT22;41709;52.536;5.688;2023-03-01T03:13:02;0.40;86.10
55785;DHT22;41709;52.536;5.688;2023-03-01T03:15:28;0.40;86.00
55785;DHT22;41709;52.536;5.688;2023-03-01T03:17:55;0.40;86.00
55785;DHT22;41709;52.536;5.688;2023-03-01T03:20:24;0.40;86.10
55785;DHT22;41709;52.536;5.688;2023-03-01T03:22:52;0.40;87.00
55785;DHT22;41709;52.536;5.688;2023-03-01T03:25:20;0.40;86.30
55785;DHT22;41709;52.536;5.688;2023-03-01T03:27:48;0.40;86.20
55785;DHT22;41709;52.536;5.688;2023-03-01T03:30:16;0.40;86.10
55785;DHT22;41709;52.536;5.688;2023-03-01T03:32:44;0.40;85.90
55785;DHT22;41709;52.536;5.688;2023-03-01T03:35:28;0.30;85.70
55785;DHT22;41709;52.536;5.688;2023-03-01T03:37:56;0.30;85.80
55785;DHT22;41709;52.536;5.688;2023-03-01T03:40:31;0.30;86.10
55785;DHT22;41709;52.536;5.688;2023-03-01T03:42:57;0.30;86.10
55785;DHT22;41709;52.536;5.688;2023-03-01T03:45:23;0.30;86.10
55785;DHT22;41709;52.536;5.688;2023-03-01T03:47:48;0.30;85.90
55785;DHT22;41709;52.536;5.688;2023-03-01T03:50:15;0.20;85.70
55785;DHT22;41709;52.536;5.688;2023-03-01T03:52:42;0.20;85.50
55785;DHT22;41709;52.536;5.688;2023-03-01T03:55:09;0.20;85.30
55785;DHT22;41709;52.536;5.688;2023-03-01T03:57:41;0.20;85.20
55785;DHT22;41709;52.536;5.688;2023-03-01T04:00:10;0.10;85.20
55785;DHT22;41709;52.536;5.688;2023-03-01T04:02:42;0.10;85.30
55785;DHT22;41709;52.536;5.688;2023-03-01T04:05:10;0.10;85.50
55785;DHT22;41709;52.536;5.688;2023-03-01T04:07:36;0.10;85.60
55785;DHT22;41709;52.536;5.688;2023-03-01T04:10:04;0.10;85.50
55785;DHT22;41709;52.536;5.688;2023-03-01T04:12:30;0.10;85.50
55785;DHT22;41709;52.536;5.688;2023-03-01T04:14:55;0.00;85.50
55785;DHT22;41709;52.536;5.688;2023-03-01T04:17:21;0.00;85.60
55785;DHT22;41709;52.536;5.688;2023-03-01T04:19:46;0.00;85.70
55785;DHT22;41709;52.536;5.688;2023-03-01T04:22:14;0.00;86.00
55785;DHT22;41709;52.536;5.688;2023-03-01T04:24:42;0.00;86.20
55785;DHT22;41709;52.536;5.688;2023-03-01T04:27:09;0.00;86.30
55785;DHT22;41709;52.536;5.688;2023-03-01T04:29:34;0.00;86.30
55785;DHT22;41709;52.536;5.688;2023-03-01T04:32:00;0.00;86.30
55785;DHT22;41709;52.536;5.688;2023-03-01T04:34:25;0.00;86.40
55785;DHT22;41709;52.536;5.688;2023-03-01T04:36:52;0.00;86.40
55785;DHT22;41709;52.536;5.688;2023-03-01T04:39:18;0.00;86.40
55785;DHT22;41709;52.536;5.688;2023-03-01T04:41:43;0.00;86.40
55785;DHT22;41709;52.536;5.688;2023-03-01T04:44:09;0.00;86.50
55785;DHT22;41709;52.536;5.688;2023-03-01T04:46:35;0.00;86.60
55785;DHT22;41709;52.536;5.688;2023-03-01T04:49:02;0.00;86.70
55785;DHT22;41709;52.536;5.688;2023-03-01T04:51:28;0.00;86.80
55785;DHT22;41709;52.536;5.688;2023-03-01T04:53:54;0.00;87.00
55785;DHT22;41709;52.536;5.688;2023-03-01T04:56:20;-0.10;87.20
55785;DHT22;41709;52.536;5.688;2023-03-01T04:58:48;0.00;87.50
55785;DHT22;41709;52.536;5.688;2023-03-01T05:01:16;0.00;87.70
55785;DHT22;41709;52.536;5.688;2023-03-01T05:03:47;0.00;87.80
55785;DHT22;41709;52.536;5.688;2023-03-01T05:06:14;0.00;88.00
55785;DHT22;41709;52.536;5.688;2023-03-01T05:08:41;0.00;88.30
55785;DHT22;41709;52.536;5.688;2023-03-01T05:11:06;0.00;88.50
55785;DHT22;41709;52.536;5.688;2023-03-01T05:13:35;0.10;88.70
55785;DHT22;41709;52.536;5.688;2023-03-01T05:16:02;0.10;88.80
55785;DHT22;41709;52.536;5.688;2023-03-01T05:18:29;0.10;89.00
55785;DHT22;41709;52.536;5.688;2023-03-01T05:21:02;0.10;89.00
55785;DHT22;41709;52.536;5.688;2023-03-01T05:23:30;0.10;89.10
55785;DHT22;41709;52.536;5.688;2023-03-01T05:26:01;0.10;89.20
55785;DHT22;41709;52.536;5.688;2023-03-01T05:28:28;0.10;89.30
55785;DHT22;41709;52.536;5.688;2023-03-01T05:30:54;0.10;89.40
55785;DHT22;41709;52.536;5.688;2023-03-01T05:33:20;0.20;89.50
55785;DHT22;41709;52.536;5.688;2023-03-01T05:35:48;0.20;89.50
55785;DHT22;41709;52.536;5.688;2023-03-01T05:38:15;0.30;89.50
55785;DHT22;41709;52.536;5.688;2023-03-01T05:40:45;0.20;89.30
55785;DHT22;41709;52.536;5.688;2023-03-01T05:43:13;0.20;89.20
55785;DHT22;41709;52.536;5.688;2023-03-01T05:45:39;0.20;89.10
55785;DHT22;41709;52.536;5.688;2023-03-01T05:48:06;0.20;89.00
55785;DHT22;41709;52.536;5.688;2023-03-01T05:50:34;0.20;89.00
55785;DHT22;41709;52.536;5.688;2023-03-01T05:53:10;0.20;89.00
55785;DHT22;41709;52.536;5.688;2023-03-01T05:55:36;0.20;88.70
55785;DHT22;41709;52.536;5.688;2023-03-01T05:58:05;0.10;88.70
55785;DHT22;41709;52.536;5.688;2023-03-01T06:00:32;0.10;88.50
55785;DHT22;41709;52.536;5.688;2023-03-01T06:02:58;0.10;88.50
55785;DHT22;41709;52.536;5.688;2023-03-01T06:05:24;0.10;88.40
55785;DHT22;41709;52.536;5.688;2023-03-01T06:07:51;0.10;88.40
55785;DHT22;41709;52.536;5.688;2023-03-01T06:10:18;0.10;88.40
55785;DHT22;41709;52.536;5.688;2023-03-01T06:12:44;0.10;88.40
55785;DHT22;41709;52.536;5.688;2023-03-01T06:15:12;0.00;88.20
55785;DHT22;41709;52.536;5.688;2023-03-01T06:17:40;0.00;88.20
55785;DHT22;41709;52.536;5.688;2023-03-01T06:20:18;0.00;88.20
55785;DHT22;41709;52.536;5.688;2023-03-01T06:22:45;-0.10;88.10
55785;DHT22;41709;52.536;5.688;2023-03-01T06:25:13;-0.10;88.20
55785;DHT22;41709;52.536;5.688;2023-03-01T06:27:40;-0.10;88.00
55785;DHT22;41709;52.536;5.688;2023-03-01T06:30:11;-0.10;87.90
55785;DHT22;41709;52.536;5.688;2023-03-01T06:32:38;-0.20;87.70
55785;DHT22;41709;52.536;5.688;2023-03-01T06:35:07;-0.20;87.60
55785;DHT22;41709;52.536;5.688;2023-03-01T06:37:33;-0.20;87.50
55785;DHT22;41709;52.536;5.688;2023-03-01T06:40:00;-0.30;87.30
55785;DHT22;41709;52.536;5.688;2023-03-01T06:42:30;-0.30;87.40
55785;DHT22;41709;52.536;5.688;2023-03-01T06:44:55;-0.30;87.50
55785;DHT22;41709;52.536;5.688;2023-03-01T06:47:21;-0.30;87.50
55785;DHT22;41709;52.536;5.688;2023-03-01T06:49:46;-0.30;87.50
55785;DHT22;41709;52.536;5.688;2023-03-01T06:52:12;-0.30;87.50
55785;DHT22;41709;52.536;5.688;2023-03-01T06:54:37;-0.40;87.30
55785;DHT22;41709;52.536;5.688;2023-03-01T06:57:03;-0.40;87.30
55785;DHT22;41709;52.536;5.688;2023-03-01T06:59:28;-0.40;87.20
55785;DHT22;41709;52.536;5.688;2023-03-01T07:01:54;-0.40;87.20
55785;DHT22;41709;52.536;5.688;2023-03-01T07:04:20;-0.40;87.20
55785;DHT22;41709;52.536;5.688;2023-03-01T07:06:45;-0.40;87.20
55785;DHT22;41709;52.536;5.688;2023-03-01T07:09:11;-0.40;87.20
55785;DHT22;41709;52.536;5.688;2023-03-01T07:11:36;-0.40;87.20
55785;DHT22;41709;52.536;5.688;2023-03-01T07:14:02;-0.40;87.20
55785;DHT22;41709;52.536;5.688;2023-03-01T07:16:28;-0.40;87.20
55785;DHT22;41709;52.536;5.688;2023-03-01T07:18:54;-0.40;87.20
55785;DHT22;41709;52.536;5.688;2023-03-01T07:21:19;-0.40;87.00
55785;DHT22;41709;52.536;5.688;2023-03-01T07:23:47;-0.40;87.10
55785;DHT22;41709;52.536;5.688;2023-03-01T07:26:13;-0.50;87.10
55785;DHT22;41709;52.536;5.688;2023-03-01T07:28:38;-0.50;87.00
55785;DHT22;41709;52.536;5.688;2023-03-01T07:31:06;-0.50;86.90
55785;DHT22;41709;52.536;5.688;2023-03-01T07:33:32;-0.50;86.60
55785;DHT22;41709;52.536;5.688;2023-03-01T07:35:59;-0.50;86.50
55785;DHT22;41709;52.536;5.688;2023-03-01T07:38:25;-0.50;86.40
55785;DHT22;41709;52.536;5.688;2023-03-01T07:40:51;-0.50;86.30
55785;DHT22;41709;52.536;5.688;2023-03-01T07:43:17;-0.50;86.40
55785;DHT22;41709;52.536;5.688;2023-03-01T07:45:42;-0.50;86.50
55785;DHT22;41709;52.536;5.688;2023-03-01T07:48:08;-0.50;86.60
55785;DHT22;41709;52.536;5.688;2023-03-01T07:50:34;-0.60;86.70
55785;DHT22;41709;52.536;5.688;2023-03-01T07:52:59;-0.60;87.00
55785;DHT22;41709;52.536;5.688;2023-03-01T07:55:25;-0.60;87.00
55785;DHT22;41709;52.536;5.688;2023-03-01T07:57:50;-0.60;87.20
55785;DHT22;41709;52.536;5.688;2023-03-01T08:00:16;-0.60;87.30
55785;DHT22;41709;52.536;5.688;2023-03-01T08:02:42;-0.70;87.50
55785;DHT22;41709;52.536;5.688;2023-03-01T08:05:08;-0.60;87.80
55785;DHT22;41709;52.536;5.688;2023-03-01T08:07:34;-0.60;88.10
55785;DHT22;41709;52.536;5.688;2023-03-01T08:10:00;-0.60;88.30
55785;DHT22;41709;52.536;5.688;2023-03-01T08:12:25;-0.60;88.40
55785;DHT22;41709;52.536;5.688;2023-03-01T08:14:52;-0.60;88.60
55785;DHT22;41709;52.536;5.688;2023-03-01T08:17:18;-0.50;89.00
55785;DHT22;41709;52.536;5.688;2023-03-01T08:19:44;-0.50;89.30
55785;DHT22;41709;52.536;5.688;2023-03-01T08:22:10;-0.50;89.60
55785;DHT22;41709;52.536;5.688;2023-03-01T08:24:36;-0.50;90.00
55785;DHT22;41709;52.536;5.688;2023-03-01T08:27:01;-0.50;90.10
55785;DHT22;41709;52.536;5.688;2023-03-01T08:29:30;-0.40;90.30
55785;DHT22;41709;52.536;5.688;2023-03-01T08:31:56;-0.40;90.50
55785;DHT22;41709;52.536;5.688;2023-03-01T08:34:21;-0.40;90.60
55785;DHT22;41709;52.536;5.688;2023-03-01T08:36:47;-0.30;90.80
55785;DHT22;41709;52.536;5.688;2023-03-01T08:39:14;-0.30;90.90
55785;DHT22;41709;52.536;5.688;2023-03-01T08:41:40;-0.20;91.00
55785;DHT22;41709;52.536;5.688;2023-03-01T08:44:07;-0.10;91.10
55785;DHT22;41709;52.536;5.688;2023-03-01T08:46:43;0.00;91.20
55785;DHT22;41709;52.536;5.688;2023-03-01T08:49:14;0.10;91.30
55785;DHT22;41709;52.536;5.688;2023-03-01T08:51:40;0.10;91.30
55785;DHT22;41709;52.536;5.688;2023-03-01T08:54:14;0.20;91.30
55785;DHT22;41709;52.536;5.688;2023-03-01T08:56:40;0.30;91.30
55785;DHT22;41709;52.536;5.688;2023-03-01T08:59:06;0.30;91.30
55785;DHT22;41709;52.536;5.688;2023-03-01T09:01:32;0.40;91.40
55785;DHT22;41709;52.536;5.688;2023-03-01T09:03:58;0.40;91.40
55785;DHT22;41709;52.536;5.688;2023-03-01T09:06:23;0.50;91.50
55785;DHT22;41709;52.536;5.688;2023-03-01T09:08:50;0.60;91.50
55785;DHT22;41709;52.536;5.688;2023-03-01T09:11:18;0.60;91.50
55785;DHT22;41709;52.536;5.688;2023-03-01T09:13:45;0.70;91.50
55785;DHT22;41709;52.536;5.688;2023-03-01T09:16:13;0.80;91.60
55785;DHT22;41709;52.536;5.688;2023-03-01T09:18:38;0.90;91.60
55785;DHT22;41709;52.536;5.688;2023-03-01T09:21:13;0.90;91.60
55785;DHT22;41709;52.536;5.688;2023-03-01T09:23:40;1.00;91.60
55785;DHT22;41709;52.536;5.688;2023-03-01T09:26:11;1.00;91.60
55785;DHT22;41709;52.536;5.688;2023-03-01T09:28:37;1.20;91.60
55785;DHT22;41709;52.536;5.688;2023-03-01T09:31:04;1.30;91.60
55785;DHT22;41709;52.536;5.688;2023-03-01T09:33:31;1.30;91.50
55785;DHT22;41709;52.536;5.688;2023-03-01T09:35:58;1.40;91.50
55785;DHT22;41709;52.536;5.688;2023-03-01T09:38:24;1.50;91.50
55785;DHT22;41709;52.536;5.688;2023-03-01T09:40:50;1.50;91.40
55785;DHT22;41709;52.536;5.688;2023-03-01T09:45:49;1.70;91.20
55785;DHT22;41709;52.536;5.688;2023-03-01T09:48:24;1.70;91.10
55785;DHT22;41709;52.536;5.688;2023-03-01T09:50:52;1.80;90.90
55785;DHT22;41709;52.536;5.688;2023-03-01T09:53:23;1.90;90.70
55785;DHT22;41709;52.536;5.688;2023-03-01T10:01:38;2.20;89.10
55785;DHT22;41709;52.536;5.688;2023-03-01T10:07:27;2.30;87.10
55785;DHT22;41709;52.536;5.688;2023-03-01T10:09:53;2.50;86.60
55785;DHT22;41709;52.536;5.688;2023-03-01T10:12:28;2.60;85.20
55785;DHT22;41709;52.536;5.688;2023-03-01T10:14:58;2.70;84.40
55785;DHT22;41709;52.536;5.688;2023-03-01T10:22:47;3.00;81.60
55785;DHT22;41709;52.536;5.688;2023-03-01T10:25:29;2.90;81.10
55785;DHT22;41709;52.536;5.688;2023-03-01T10:28:03;3.10;80.60
55785;DHT22;41709;52.536;5.688;2023-03-01T10:30:39;3.20;80.40
55785;DHT22;41709;52.536;5.688;2023-03-01T10:33:17;3.30;80.30
55785;DHT22;41709;52.536;5.688;2023-03-01T10:35:45;3.40;79.80
55785;DHT22;41709;52.536;5.688;2023-03-01T10:38:13;3.40;79.10
55785;DHT22;41709;52.536;5.688;2023-03-01T10:40:53;3.50;79.40
55785;DHT22;41709;52.536;5.688;2023-03-01T10:43:19;3.50;79.50
55785;DHT22;41709;52.536;5.688;2023-03-01T10:45:45;3.60;79.70
55785;DHT22;41709;52.536;5.688;2023-03-01T10:50:42;3.70;78.40
55785;DHT22;41709;52.536;5.688;2023-03-01T10:55:46;3.80;76.90
55785;DHT22;41709;52.536;5.688;2023-03-01T11:00:57;3.90;76.70
55785;DHT22;41709;52.536;5.688;2023-03-01T11:08:37;4.10;75.40
55785;DHT22;41709;52.536;5.688;2023-03-01T11:11:34;4.10;75.00
55785;DHT22;41709;52.536;5.688;2023-03-01T11:14:22;4.20;74.70
55785;DHT22;41709;52.536;5.688;2023-03-01T11:17:01;4.20;74.00
55785;DHT22;41709;52.536;5.688;2023-03-01T11:19:27;4.30;74.10
55785;DHT22;41709;52.536;5.688;2023-03-01T11:22:03;4.20;73.10
55785;DHT22;41709;52.536;5.688;2023-03-01T11:27:06;4.10;71.70
55785;DHT22;41709;52.536;5.688;2023-03-01T11:29:39;4.10;71.70
55785;DHT22;41709;52.536;5.688;2023-03-01T11:32:08;4.10;72.40
55785;DHT22;41709;52.536;5.688;2023-03-01T11:34:54;4.20;70.90
55785;DHT22;41709;52.536;5.688;2023-03-01T11:40:16;4.10;69.80
55785;DHT22;41709;52.536;5.688;2023-03-01T11:43:15;4.10;69.10
55785;DHT22;41709;52.536;5.688;2023-03-01T11:49:14;4.30;70.50
55785;DHT22;41709;52.536;5.688;2023-03-01T12:16:30;4.50;68.70
55785;DHT22;41709;52.536;5.688;2023-03-01T12:21:42;4.60;68.60
55785;DHT22;41709;52.536;5.688;2023-03-01T12:43:49;4.90;67.00
55785;DHT22;41709;52.536;5.688;2023-03-01T12:45:50;4.80;66.70
55785;DHT22;41709;52.536;5.688;2023-03-01T12:48:52;4.80;67.40
55785;DHT22;41709;52.536;5.688;2023-03-01T12:51:23;4.90;67.50
55785;DHT22;41709;52.536;5.688;2023-03-01T12:53:51;4.90;66.50
55785;DHT22;41709;52.536;5.688;2023-03-01T12:56:21;4.90;66.50
55785;DHT22;41709;52.536;5.688;2023-03-01T13:12:44;5.10;64.90
55785;DHT22;41709;52.536;5.688;2023-03-01T13:17:53;5.20;65.00
55785;DHT22;41709;52.536;5.688;2023-03-01T13:20:46;5.30;65.00
55785;DHT22;41709;52.536;5.688;2023-03-01T13:23:33;5.40;64.90
55785;DHT22;41709;52.536;5.688;2023-03-01T13:26:11;5.40;64.30
55785;DHT22;41709;52.536;5.688;2023-03-01T13:33:44;5.50;64.70
55785;DHT22;41709;52.536;5.688;2023-03-01T13:36:11;5.60;64.90
55785;DHT22;41709;52.536;5.688;2023-03-01T13:55:05;6.00;62.50
55785;DHT22;41709;52.536;5.688;2023-03-01T13:57:36;6.10;62.90
55785;DHT22;41709;52.536;5.688;2023-03-01T14:00:05;6.30;62.70
55785;DHT22;41709;52.536;5.688;2023-03-01T14:02:31;6.60;62.20
55785;DHT22;41709;52.536;5.688;2023-03-01T14:04:58;7.00;61.10
55785;DHT22;41709;52.536;5.688;2023-03-01T14:07:25;7.30;59.80
55785;DHT22;41709;52.536;5.688;2023-03-01T14:09:57;7.70;59.90
55785;DHT22;41709;52.536;5.688;2023-03-01T14:12:52;8.00;58.70
55785;DHT22;41709;52.536;5.688;2023-03-01T14:15:25;8.30;57.90
55785;DHT22;41709;52.536;5.688;2023-03-01T14:18:24;8.70;57.00
55785;DHT22;41709;52.536;5.688;2023-03-01T14:20:52;9.00;56.20
55785;DHT22;41709;52.536;5.688;2023-03-01T14:23:21;9.30;55.20
55785;DHT22;41709;52.536;5.688;2023-03-01T14:25:49;9.50;53.60
55785;DHT22;41709;52.536;5.688;2023-03-01T14:28:24;9.90;53.70
55785;DHT22;41709;52.536;5.688;2023-03-01T14:30:53;10.10;52.70
55785;DHT22;41709;52.536;5.688;2023-03-01T14:33:26;10.40;52.90
55785;DHT22;41709;52.536;5.688;2023-03-01T14:36:01;10.50;50.80
55785;DHT22;41709;52.536;5.688;2023-03-01T14:38:41;10.60;50.20
55785;DHT22;41709;52.536;5.688;2023-03-01T14:41:27;10.70;50.30
55785;DHT22;41709;52.536;5.688;2023-03-01T14:44:00;10.70;49.90
55785;DHT22;41709;52.536;5.688;2023-03-01T14:46:35;10.60;50.30
55785;DHT22;41709;52.536;5.688;2023-03-01T14:49:23;10.60;49.50
55785;DHT22;41709;52.536;5.688;2023-03-01T14:54:25;10.90;49.50
55785;DHT22;41709;52.536;5.688;2023-03-01T14:56:58;11.00;48.80
55785;DHT22;41709;52.536;5.688;2023-03-01T14:59:24;10.90;48.50
55785;DHT22;41709;52.536;5.688;2023-03-01T15:01:51;10.80;48.80
55785;DHT22;41709;52.536;5.688;2023-03-01T15:04:19;10.70;48.00
55785;DHT22;41709;52.536;5.688;2023-03-01T15:06:45;10.60;48.60
55785;DHT22;41709;52.536;5.688;2023-03-01T15:09:15;10.60;49.50
55785;DHT22;41709;52.536;5.688;2023-03-01T15:11:42;10.70;48.80
55785;DHT22;41709;52.536;5.688;2023-03-01T15:16:53;11.10;49.70
55785;DHT22;41709;52.536;5.688;2023-03-01T15:19:19;11.10;48.80
55785;DHT22;41709;52.536;5.688;2023-03-01T15:21:48;11.10;49.50
55785;DHT22;41709;52.536;5.688;2023-03-01T15:24:24;11.00;49.60
55785;DHT22;41709;52.536;5.688;2023-03-01T15:29:20;11.00;48.80
55785;DHT22;41709;52.536;5.688;2023-03-01T15:34:25;10.80;48.80
55785;DHT22;41709;52.536;5.688;2023-03-01T15:36:53;10.60;49.20
55785;DHT22;41709;52.536;5.688;2023-03-01T15:39:30;10.50;48.90
55785;DHT22;41709;52.536;5.688;2023-03-01T15:41:56;10.40;49.70
55785;DHT22;41709;52.536;5.688;2023-03-01T15:44:28;10.30;49.50
55785;DHT22;41709;52.536;5.688;2023-03-01T15:46:54;10.10;48.80
55785;DHT22;41709;52.536;5.688;2023-03-01T15:49:38;10.00;49.10
55785;DHT22;41709;52.536;5.688;2023-03-01T15:52:06;9.90;50.10
55785;DHT22;41709;52.536;5.688;2023-03-01T15:54:35;9.80;50.80
55785;DHT22;41709;52.536;5.688;2023-03-01T15:57:00;9.60;50.80
55785;DHT22;41709;52.536;5.688;2023-03-01T15:59:26;9.20;51.20
55785;DHT22;41709;52.536;5.688;2023-03-01T16:01:52;8.90;52.10
55785;DHT22;41709;52.536;5.688;2023-03-01T16:04:18;8.60;52.90
55785;DHT22;41709;52.536;5.688;2023-03-01T16:06:52;8.30;53.80
55785;DHT22;41709;52.536;5.688;2023-03-01T16:09:25;8.00;54.60
55785;DHT22;41709;52.536;5.688;2023-03-01T16:11:53;7.70;55.50
55785;DHT22;41709;52.536;5.688;2023-03-01T16:14:19;7.50;57.30
55785;DHT22;41709;52.536;5.688;2023-03-01T16:16:45;7.40;59.00
55785;DHT22;41709;52.536;5.688;2023-03-01T16:19:11;7.30;58.90
55785;DHT22;41709;52.536;5.688;2023-03-01T16:21:37;7.10;59.80
55785;DHT22;41709;52.536;5.688;2023-03-01T16:24:03;7.00;60.20
55785;DHT22;41709;52.536;5.688;2023-03-01T16:26:29;6.80;60.60
55785;DHT22;41709;52.536;5.688;2023-03-01T16:28:56;6.70;61.60
55785;DHT22;41709;52.536;5.688;2023-03-01T16:31:22;6.60;62.20
55785;DHT22;41709;52.536;5.688;2023-03-01T16:33:48;6.60;62.60
55785;DHT22;41709;52.536;5.688;2023-03-01T16:36:18;6.50;62.60
55785;DHT22;41709;52.536;5.688;2023-03-01T16:38:45;6.40;63.50
55785;DHT22;41709;52.536;5.688;2023-03-01T16:41:15;6.30;63.60
55785;DHT22;41709;52.536;5.688;2023-03-01T16:43:41;6.20;64.10
55785;DHT22;41709;52.536;5.688;2023-03-01T16:46:16;6.20;64.40
55785;DHT22;41709;52.536;5.688;2023-03-01T16:48:42;6.20;64.90
55785;DHT22;41709;52.536;5.688;2023-03-01T16:51:08;6.20;65.40
55785;DHT22;41709;52.536;5.688;2023-03-01T16:53:35;6.10;65.80
55785;DHT22;41709;52.536;5.688;2023-03-01T16:56:06;6.00;66.20
55785;DHT22;41709;52.536;5.688;2023-03-01T16:58:33;5.80;66.90
55785;DHT22;41709;52.536;5.688;2023-03-01T17:01:07;5.80;67.60
55785;DHT22;41709;52.536;5.688;2023-03-01T17:03:33;5.80;67.60
55785;DHT22;41709;52.536;5.688;2023-03-01T17:06:04;5.80;67.40
55785;DHT22;41709;52.536;5.688;2023-03-01T17:08:30;5.80;67.50
55785;DHT22;41709;52.536;5.688;2023-03-01T17:11:05;5.80;67.60
55785;DHT22;41709;52.536;5.688;2023-03-01T17:13:31;5.80;67.60
55785;DHT22;41709;52.536;5.688;2023-03-01T17:15:56;5.80;67.40
55785;DHT22;41709;52.536;5.688;2023-03-01T17:18:22;5.70;67.40
55785;DHT22;41709;52.536;5.688;2023-03-01T17:20:48;5.70;67.50
55785;DHT22;41709;52.536;5.688;2023-03-01T17:23:14;5.70;67.60
55785;DHT22;41709;52.536;5.688;2023-03-01T17:25:43;5.70;67.40
55785;DHT22;41709;52.536;5.688;2023-03-01T17:28:10;5.70;67.40
55785;DHT22;41709;52.536;5.688;2023-03-01T17:30:36;5.60;67.10
55785;DHT22;41709;52.536;5.688;2023-03-01T17:33:02;5.60;67.00
55785;DHT22;41709;52.536;5.688;2023-03-01T17:35:27;5.50;66.90
55785;DHT22;41709;52.536;5.688;2023-03-01T17:37:53;5.40;67.10
55785;DHT22;41709;52.536;5.688;2023-03-01T17:40:19;5.40;66.90
55785;DHT22;41709;52.536;5.688;2023-03-01T17:42:44;5.30;66.90
55785;DHT22;41709;52.536;5.688;2023-03-01T17:45:10;5.20;66.90
55785;DHT22;41709;52.536;5.688;2023-03-01T17:47:35;5.20;67.20
55785;DHT22;41709;52.536;5.688;2023-03-01T17:50:01;5.10;67.10
55785;DHT22;41709;52.536;5.688;2023-03-01T17:52:28;5.00;67.20
55785;DHT22;41709;52.536;5.688;2023-03-01T17:54:53;5.00;67.50
55785;DHT22;41709;52.536;5.688;2023-03-01T17:57:19;4.90;67.40
55785;DHT22;41709;52.536;5.688;2023-03-01T17:59:44;4.80;67.60
55785;DHT22;41709;52.536;5.688;2023-03-01T18:02:11;4.80;67.70
55785;DHT22;41709;52.536;5.688;2023-03-01T18:04:37;4.80;68.00
55785;DHT22;41709;52.536;5.688;2023-03-01T18:07:03;4.70;68.00
55785;DHT22;41709;52.536;5.688;2023-03-01T18:09:28;4.70;68.10
55785;DHT22;41709;52.536;5.688;2023-03-01T18:11:55;4.70;68.10
55785;DHT22;41709;52.536;5.688;2023-03-01T18:14:20;4.70;68.40
55785;DHT22;41709;52.536;5.688;2023-03-01T18:16:46;4.60;69.20
55785;DHT22;41709;52.536;5.688;2023-03-01T18:19:11;4.50;68.70
55785;DHT22;41709;52.536;5.688;2023-03-01T18:21:37;4.50;68.90